sensor_id;sensor_type;location;lat;lon;timestamp;temperature;humidity
30336;DHT22;17142;47.990;7.846;2023-02-03T00:01:43;5.90;99.90
30336;DHT22;17142;47.990;7.846;2023-02-03T00:04:11;5.80;99.90
30336;DHT22;17142;47.990;7.846;2023-02-03T00:06:37;5.80;99.90
30336;DHT22;17142;47.990;7.846;2023-02-03T00:09:06;5.80;99.90
30336;DHT22;17142;47.990;7.846;2023-02-03T00:11:31;5.80;99.90
30336;DHT22;17142;47.990;7.846;2023-02-03T00:13:57;5.80;99.90
30336;DHT22;17142;47.990;7.846;2023-02-03T00:16:22;5.70;99.90
30336;DHT22;17142;47.990;7.846;2023-02-03T00:18:51;5.70;99.90
30336;DHT22;17142;47.990;7.846;2023-02-03T00:21:16;5.70;99.90
30336;DHT22;17142;47.990;7.846;2023-02-03T00:23:42;5.70;99.90
30336;DHT22;17142;47.990;7.846;2023-02-03T00:26:13;5.70;99.90
30336;DHT22;17142;47.990;7.846;2023-02-03T00:28:40;5.70;99.90
30336;DHT22;17142;47.990;7.846;2023-02-03T00:31:23;5.70;99.90
30336;DHT22;17142;47.990;7.846;2023-02-03T00:33:55;5.70;99.90
30336;DHT22;17142;47.990;7.846;2023-02-03T00:36:21;5.70;99.90
30336;DHT22;17142;47.990;7.846;2023-02-03T00:38:47;5.70;99.90
30336;DHT22;17142;47.990;7.846;2023-02-03T00:41:14;5.80;99.90
30336;DHT22;17142;47.990;7.846;2023-02-03T00:43:40;5.80;99.90
30336;DHT22;17142;47.990;7.846;2023-02-03T00:46:06;5.80;99.90
30336;DHT22;17142;47.990;7.846;2023-02-03T00:48:31;5.80;99.90
30336;DHT22;17142;47.990;7.846;2023-02-03T00:50:59;5.80;99.90
30336;DHT22;17142;47.990;7.846;2023-02-03T00:53:25;5.80;99.90
30336;DHT22;17142;47.990;7.846;2023-02-03T00:55:53;5.80;99.90
30336;DHT22;17142;47.990;7.846;2023-02-03T00:58:18;5.80;99.90
30336;DHT22;17142;47.990;7.846;2023-02-03T01:00:44;5.80;99.90
30336;DHT22;17142;47.990;7.846;2023-02-03T01:03:09;5.70;99.90
30336;DHT22;17142;47.990;7.846;2023-02-03T01:05:36;5.70;99.90
30336;DHT22;17142;47.990;7.846;2023-02-03T01:08:02;5.70;99.90
30336;DHT22;17142;47.990;7.846;2023-02-03T01:10:28;5.70;99.90
30336;DHT22;17142;47.990;7.846;2023-02-03T01:12:56;5.70;99.90
30336;DHT22;17142;47.990;7.846;2023-02-03T01:15:22;5.70;99.90
30336;DHT22;17142;47.990;7.846;2023-02-03T01:17:47;5.70;99.90
30336;DHT22;17142;47.990;7.846;2023-02-03T01:20:13;5.80;99.90
30336;DHT22;17142;47.990;7.846;2023-02-03T01:22:41;5.80;99.90
30336;DHT22;17142;47.990;7.846;2023-02-03T01:25:07;5.80;99.90
30336;DHT22;17142;47.990;7.846;2023-02-03T01:27:35;5.80;99.90
30336;DHT22;17142;47.990;7.846;2023-02-03T01:30:01;5.80;99.90
30336;DHT22;17142;47.990;7.846;2023-02-03T01:32:29;5.80;99.90
30336;DHT22;17142;47.990;7.846;2023-02-03T01:34:54;5.80;99.90
30336;DHT22;17142;47.990;7.846;2023-02-03T01:37:20;5.80;99.90
30336;DHT22;17142;47.990;7.846;2023-02-03T01:39:48;5.80;99.90
30336;DHT22;17142;47.990;7.846;2023-02-03T01:42:14;5.80;99.90
30336;DHT22;17142;47.990;7.846;2023-02-03T01:44:47;5.80;99.90
30336;DHT22;17142;47.990;7.846;2023-02-03T01:52:24;5.70;99.90
30336;DHT22;17142;47.990;7.846;2023-02-03T01:54:51;5.70;99.90
30336;DHT22;17142;47.990;7.846;2023-02-03T01:57:41;5.70;99.90
30336;DHT22;17142;47.990;7.846;2023-02-03T02:00:09;5.60;99.90
30336;DHT22;17142;47.990;7.846;2023-02-03T02:02:35;5.60;99.90
30336;DHT22;17142;47.990;7.846;2023-02-03T02:05:10;5.60;99.90
30336;DHT22;17142;47.990;7.846;2023-02-03T02:07:44;5.60;99.90
30336;DHT22;17142;47.990;7.846;2023-02-03T02:10:13;5.50;99.90
30336;DHT22;17142;47.990;7.846;2023-02-03T02:12:38;5.50;99.90
30336;DHT22;17142;47.990;7.846;2023-02-03T02:15:07;5.50;99.90
30336;DHT22;17142;47.990;7.846;2023-02-03T02:37:08;5.40;99.90
30336;DHT22;17142;47.990;7.846;2023-02-03T02:39:45;5.40;99.90
30336;DHT22;17142;47.990;7.846;2023-02-03T02:44:58;5.40;99.90
30336;DHT22;17142;47.990;7.846;2023-02-03T02:47:27;5.50;99.90
30336;DHT22;17142;47.990;7.846;2023-02-03T02:50:13;5.50;99.90
30336;DHT22;17142;47.990;7.846;2023-02-03T02:52:41;5.60;99.90
30336;DHT22;17142;47.990;7.846;2023-02-03T02:55:26;5.60;99.90
30336;DHT22;17142;47.990;7.846;2023-02-03T02:57:58;5.60;99.90
30336;DHT22;17142;47.990;7.846;2023-02-03T03:00:29;5.60;99.90
30336;DHT22;17142;47.990;7.846;2023-02-03T03:02:55;5.50;99.90
30336;DHT22;17142;47.990;7.846;2023-02-03T03:05:22;5.40;99.90
30336;DHT22;17142;47.990;7.846;2023-02-03T03:07:55;5.20;99.90
30336;DHT22;17142;47.990;7.846;2023-02-03T03:10:24;5.10;99.90
30336;DHT22;17142;47.990;7.846;2023-02-03T03:12:56;5.00;99.90
30336;DHT22;17142;47.990;7.846;2023-02-03T03:15:27;4.80;99.90
30336;DHT22;17142;47.990;7.846;2023-02-03T03:18:07;4.70;99.90
30336;DHT22;17142;47.990;7.846;2023-02-03T03:20:40;4.60;99.90
30336;DHT22;17142;47.990;7.846;2023-02-03T03:23:14;4.60;99.90
30336;DHT22;17142;47.990;7.846;2023-02-03T03:25:48;4.60;99.90
30336;DHT22;17142;47.990;7.846;2023-02-03T03:28:23;4.60;99.90
30336;DHT22;17142;47.990;7.846;2023-02-03T03:30:53;4.60;99.90
30336;DHT22;17142;47.990;7.846;2023-02-03T03:33:20;4.50;99.90
30336;DHT22;17142;47.990;7.846;2023-02-03T03:35:59;4.50;99.90
30336;DHT22;17142;47.990;7.846;2023-02-03T03:38:34;4.50;99.90
30336;DHT22;17142;47.990;7.846;2023-02-03T03:41:14;4.50;99.90
30336;DHT22;17142;47.990;7.846;2023-02-03T03:43:44;4.50;99.90
30336;DHT22;17142;47.990;7.846;2023-02-03T03:46:19;4.50;99.90
30336;DHT22;17142;47.990;7.846;2023-02-03T03:48:55;4.50;99.90
30336;DHT22;17142;47.990;7.846;2023-02-03T03:51:54;4.40;99.90
30336;DHT22;17142;47.990;7.846;2023-02-03T03:54:25;4.40;99.90
30336;DHT22;17142;47.990;7.846;2023-02-03T03:57:05;4.40;99.90
30336;DHT22;17142;47.990;7.846;2023-02-03T03:59:36;4.40;99.90
30336;DHT22;17142;47.990;7.846;2023-02-03T04:02:03;4.50;99.90
30336;DHT22;17142;47.990;7.846;2023-02-03T04:04:32;4.60;99.90
30336;DHT22;17142;47.990;7.846;2023-02-03T04:06:58;4.60;99.90
30336;DHT22;17142;47.990;7.846;2023-02-03T04:09:24;4.70;99.90
30336;DHT22;17142;47.990;7.846;2023-02-03T04:11:52;4.80;99.90
30336;DHT22;17142;47.990;7.846;2023-02-03T04:14:32;4.80;99.90
30336;DHT22;17142;47.990;7.846;2023-02-03T04:16:58;4.80;99.90
30336;DHT22;17142;47.990;7.846;2023-02-03T04:19:24;4.80;99.90
30336;DHT22;17142;47.990;7.846;2023-02-03T04:21:50;4.80;99.90
30336;DHT22;17142;47.990;7.846;2023-02-03T04:24:15;4.90;99.90
30336;DHT22;17142;47.990;7.846;2023-02-03T04:26:41;4.90;99.90
30336;DHT22;17142;47.990;7.846;2023-02-03T04:29:10;4.80;99.90
30336;DHT22;17142;47.990;7.846;2023-02-03T04:31:35;4.80;99.90
30336;DHT22;17142;47.990;7.846;2023-02-03T04:34:03;4.90;99.90
30336;DHT22;17142;47.990;7.846;2023-02-03T04:36:28;4.90;99.90
30336;DHT22;17142;47.990;7.846;2023-02-03T04:38:54;5.00;99.90
30336;DHT22;17142;47.990;7.846;2023-02-03T04:41:20;5.10;99.90
30336;DHT22;17142;47.990;7.846;2023-02-03T04:43:48;5.20;99.90
30336;DHT22;17142;47.990;7.846;2023-02-03T04:46:13;5.30;99.90
30336;DHT22;17142;47.990;7.846;2023-02-03T04:48:39;5.30;99.90
30336;DHT22;17142;47.990;7.846;2023-02-03T04:51:06;5.30;99.90
30336;DHT22;17142;47.990;7.846;2023-02-03T04:53:32;5.40;99.90
30336;DHT22;17142;47.990;7.846;2023-02-03T04:55:58;5.40;99.90
30336;DHT22;17142;47.990;7.846;2023-02-03T04:58:24;5.50;99.90
30336;DHT22;17142;47.990;7.846;2023-02-03T05:00:53;5.60;99.90
30336;DHT22;17142;47.990;7.846;2023-02-03T05:03:19;5.60;99.90
30336;DHT22;17142;47.990;7.846;2023-02-03T05:05:45;5.60;99.90
30336;DHT22;17142;47.990;7.846;2023-02-03T05:08:10;5.60;99.90
30336;DHT22;17142;47.990;7.846;2023-02-03T05:10:36;5.70;99.90
30336;DHT22;17142;47.990;7.846;2023-02-03T05:13:02;5.60;99.90
30336;DHT22;17142;47.990;7.846;2023-02-03T05:15:28;5.60;99.90
30336;DHT22;17142;47.990;7.846;2023-02-03T05:17:54;5.60;99.90
30336;DHT22;17142;47.990;7.846;2023-02-03T05:20:20;5.60;99.90
30336;DHT22;17142;47.990;7.846;2023-02-03T05:22:49;5.60;99.90
30336;DHT22;17142;47.990;7.846;2023-02-03T05:25:14;5.50;99.90
30336;DHT22;17142;47.990;7.846;2023-02-03T05:27:43;5.50;99.90
30336;DHT22;17142;47.990;7.846;2023-02-03T05:30:09;5.50;99.90
30336;DHT22;17142;47.990;7.846;2023-02-03T05:32:35;5.50;99.90
30336;DHT22;17142;47.990;7.846;2023-02-03T05:35:00;5.50;99.90
30336;DHT22;17142;47.990;7.846;2023-02-03T05:37:28;5.50;99.90
30336;DHT22;17142;47.990;7.846;2023-02-03T05:39:54;5.60;99.90
30336;DHT22;17142;47.990;7.846;2023-02-03T05:42:46;5.60;99.90
30336;DHT22;17142;47.990;7.846;2023-02-03T05:45:16;5.60;99.90
30336;DHT22;17142;47.990;7.846;2023-02-03T05:47:46;5.60;99.90
30336;DHT22;17142;47.990;7.846;2023-02-03T05:50:14;5.60;99.90
30336;DHT22;17142;47.990;7.846;2023-02-03T05:52:42;5.70;99.90
30336;DHT22;17142;47.990;7.846;2023-02-03T05:55:08;5.70;99.90
30336;DHT22;17142;47.990;7.846;2023-02-03T05:57:33;5.70;99.90
30336;DHT22;17142;47.990;7.846;2023-02-03T05:59:59;5.80;99.90
30336;DHT22;17142;47.990;7.846;2023-02-03T06:02:25;5.80;99.90
30336;DHT22;17142;47.990;7.846;2023-02-03T06:04:50;5.80;99.90
30336;DHT22;17142;47.990;7.846;2023-02-03T06:07:18;5.80;99.90
30336;DHT22;17142;47.990;7.846;2023-02-03T06:09:43;5.80;99.90
30336;DHT22;17142;47.990;7.846;2023-02-03T06:12:09;5.80;99.90
30336;DHT22;17142;47.990;7.846;2023-02-03T06:14:35;5.80;99.90
30336;DHT22;17142;47.990;7.846;2023-02-03T06:17:00;5.80;99.90
30336;DHT22;17142;47.990;7.846;2023-02-03T06:19:26;5.90;99.90
30336;DHT22;17142;47.990;7.846;2023-02-03T06:21:54;5.90;99.90
30336;DHT22;17142;47.990;7.846;2023-02-03T06:24:22;5.90;99.90
30336;DHT22;17142;47.990;7.846;2023-02-03T06:26:47;6.00;99.90
30336;DHT22;17142;47.990;7.846;2023-02-03T06:29:13;6.00;99.90
30336;DHT22;17142;47.990;7.846;2023-02-03T06:31:41;6.00;99.90
30336;DHT22;17142;47.990;7.846;2023-02-03T06:34:07;6.00;99.90
30336;DHT22;17142;47.990;7.846;2023-02-03T06:36:37;6.00;99.90
30336;DHT22;17142;47.990;7.846;2023-02-03T06:39:03;6.00;99.90
30336;DHT22;17142;47.990;7.846;2023-02-03T06:41:28;5.90;99.90
30336;DHT22;17142;47.990;7.846;2023-02-03T06:43:57;6.00;99.90
30336;DHT22;17142;47.990;7.846;2023-02-03T06:46:25;6.00;99.90
30336;DHT22;17142;47.990;7.846;2023-02-03T06:48:54;5.90;99.90
30336;DHT22;17142;47.990;7.846;2023-02-03T06:51:19;5.90;99.90
30336;DHT22;17142;47.990;7.846;2023-02-03T06:53:45;5.90;99.90
30336;DHT22;17142;47.990;7.846;2023-02-03T06:56:13;5.90;99.90
30336;DHT22;17142;47.990;7.846;2023-02-03T06:58:38;5.90;99.90
30336;DHT22;17142;47.990;7.846;2023-02-03T07:01:04;5.90;99.90
30336;DHT22;17142;47.990;7.846;2023-02-03T07:03:30;5.90;99.90
30336;DHT22;17142;47.990;7.846;2023-02-03T07:05:55;5.90;99.90
30336;DHT22;17142;47.990;7.846;2023-02-03T07:08:21;5.90;99.90
30336;DHT22;17142;47.990;7.846;2023-02-03T07:10:46;5.90;99.90
30336;DHT22;17142;47.990;7.846;2023-02-03T07:13:12;5.80;99.90
30336;DHT22;17142;47.990;7.846;2023-02-03T07:15:37;5.80;99.90
30336;DHT22;17142;47.990;7.846;2023-02-03T07:18:03;5.80;99.90
30336;DHT22;17142;47.990;7.846;2023-02-03T07:20:29;5.70;99.90
30336;DHT22;17142;47.990;7.846;2023-02-03T07:22:57;5.70;99.90
30336;DHT22;17142;47.990;7.846;2023-02-03T07:25:24;5.80;99.90
30336;DHT22;17142;47.990;7.846;2023-02-03T07:27:50;5.80;99.90
30336;DHT22;17142;47.990;7.846;2023-02-03T07:30:18;5.80;99.90
30336;DHT22;17142;47.990;7.846;2023-02-03T07:32:51;5.90;99.90
30336;DHT22;17142;47.990;7.846;2023-02-03T07:35:17;5.90;99.90
30336;DHT22;17142;47.990;7.846;2023-02-03T07:37:43;5.90;99.90
30336;DHT22;17142;47.990;7.846;2023-02-03T07:40:12;6.00;99.90
30336;DHT22;17142;47.990;7.846;2023-02-03T07:42:46;6.00;99.90
30336;DHT22;17142;47.990;7.846;2023-02-03T07:45:13;6.10;99.90
30336;DHT22;17142;47.990;7.846;2023-02-03T07:47:42;6.20;99.90
30336;DHT22;17142;47.990;7.846;2023-02-03T07:50:11;6.20;99.90
30336;DHT22;17142;47.990;7.846;2023-02-03T07:52:37;6.30;99.90
30336;DHT22;17142;47.990;7.846;2023-02-03T07:55:03;6.40;99.90
30336;DHT22;17142;47.990;7.846;2023-02-03T07:57:29;6.40;99.90
30336;DHT22;17142;47.990;7.846;2023-02-03T07:59:54;6.40;99.90
30336;DHT22;17142;47.990;7.846;2023-02-03T08:02:20;6.40;99.90
30336;DHT22;17142;47.990;7.846;2023-02-03T08:04:48;6.50;99.90
30336;DHT22;17142;47.990;7.846;2023-02-03T08:07:14;6.50;99.90
30336;DHT22;17142;47.990;7.846;2023-02-03T08:09:39;6.50;99.90
30336;DHT22;17142;47.990;7.846;2023-02-03T08:12:05;6.60;99.90
30336;DHT22;17142;47.990;7.846;2023-02-03T08:14:31;6.60;99.90
30336;DHT22;17142;47.990;7.846;2023-02-03T08:16:59;6.60;99.90
30336;DHT22;17142;47.990;7.846;2023-02-03T08:19:24;6.60;99.90
30336;DHT22;17142;47.990;7.846;2023-02-03T08:21:50;6.70;99.90
30336;DHT22;17142;47.990;7.846;2023-02-03T08:24:16;6.70;99.90
30336;DHT22;17142;47.990;7.846;2023-02-03T08:26:41;6.80;99.90
30336;DHT22;17142;47.990;7.846;2023-02-03T08:29:09;6.90;99.90
30336;DHT22;17142;47.990;7.846;2023-02-03T08:31:36;6.90;99.90
30336;DHT22;17142;47.990;7.846;2023-02-03T08:34:01;7.00;99.90
30336;DHT22;17142;47.990;7.846;2023-02-03T08:36:27;7.00;99.90
30336;DHT22;17142;47.990;7.846;2023-02-03T08:38:55;7.00;99.90
30336;DHT22;17142;47.990;7.846;2023-02-03T08:41:20;7.00;99.90
30336;DHT22;17142;47.990;7.846;2023-02-03T08:43:46;7.10;99.90
30336;DHT22;17142;47.990;7.846;2023-02-03T08:46:15;7.10;99.90
30336;DHT22;17142;47.990;7.846;2023-02-03T08:48:42;7.10;99.90
30336;DHT22;17142;47.990;7.846;2023-02-03T08:51:13;7.10;99.90
30336;DHT22;17142;47.990;7.846;2023-02-03T08:53:39;7.10;99.90
30336;DHT22;17142;47.990;7.846;2023-02-03T08:56:06;7.20;99.90
30336;DHT22;17142;47.990;7.846;2023-02-03T08:58:33;7.20;99.90
30336;DHT22;17142;47.990;7.846;2023-02-03T09:01:25;7.30;99.90
30336;DHT22;17142;47.990;7.846;2023-02-03T09:03:51;7.50;99.90
30336;DHT22;17142;47.990;7.846;2023-02-03T09:06:16;7.80;99.90
30336;DHT22;17142;47.990;7.846;2023-02-03T09:08:43;8.10;99.90
30336;DHT22;17142;47.990;7.846;2023-02-03T09:11:11;8.30;99.90
30336;DHT22;17142;47.990;7.846;2023-02-03T09:13:39;8.30;99.90
30336;DHT22;17142;47.990;7.846;2023-02-03T09:16:07;8.20;99.90
30336;DHT22;17142;47.990;7.846;2023-02-03T09:18:33;8.10;99.90
30336;DHT22;17142;47.990;7.846;2023-02-03T09:21:06;7.90;99.90
30336;DHT22;17142;47.990;7.846;2023-02-03T09:23:32;7.80;99.90
30336;DHT22;17142;47.990;7.846;2023-02-03T09:26:09;7.70;99.90
30336;DHT22;17142;47.990;7.846;2023-02-03T09:28:35;7.70;99.90
30336;DHT22;17142;47.990;7.846;2023-02-03T09:31:05;7.60;99.90
30336;DHT22;17142;47.990;7.846;2023-02-03T09:33:31;7.70;99.90
30336;DHT22;17142;47.990;7.846;2023-02-03T09:35:57;7.70;99.90
30336;DHT22;17142;47.990;7.846;2023-02-03T09:38:26;7.70;99.90
30336;DHT22;17142;47.990;7.846;2023-02-03T09:40:55;7.80;99.90
30336;DHT22;17142;47.990;7.846;2023-02-03T09:48:54;7.80;99.90
30336;DHT22;17142;47.990;7.846;2023-02-03T09:51:43;7.80;99.90
30336;DHT22;17142;47.990;7.846;2023-02-03T09:56:54;7.80;99.90
30336;DHT22;17142;47.990;7.846;2023-02-03T09:59:21;7.80;99.90
30336;DHT22;17142;47.990;7.846;2023-02-03T10:04:21;7.80;99.90
30336;DHT22;17142;47.990;7.846;2023-02-03T10:06:59;7.80;99.90
30336;DHT22;17142;47.990;7.846;2023-02-03T10:15:10;8.10;99.90
30336;DHT22;17142;47.990;7.846;2023-02-03T10:17:46;8.20;99.90
30336;DHT22;17142;47.990;7.846;2023-02-03T10:20:24;8.30;99.90
30336;DHT22;17142;47.990;7.846;2023-02-03T10:22:57;8.60;99.90
30336;DHT22;17142;47.990;7.846;2023-02-03T10:25:38;8.70;99.90
30336;DHT22;17142;47.990;7.846;2023-02-03T10:28:18;8.90;99.90
30336;DHT22;17142;47.990;7.846;2023-02-03T10:30:48;9.00;99.90
30336;DHT22;17142;47.990;7.846;2023-02-03T10:33:18;9.00;99.90
30336;DHT22;17142;47.990;7.846;2023-02-03T10:40:59;9.10;99.90
30336;DHT22;17142;47.990;7.846;2023-02-03T10:43:29;9.20;99.90
30336;DHT22;17142;47.990;7.846;2023-02-03T10:46:15;9.40;99.90
30336;DHT22;17142;47.990;7.846;2023-02-03T10:48:41;9.40;99.90
30336;DHT22;17142;47.990;7.846;2023-02-03T10:51:22;9.40;99.90
30336;DHT22;17142;47.990;7.846;2023-02-03T10:53:53;9.40;99.90
30336;DHT22;17142;47.990;7.846;2023-02-03T10:56:34;9.20;99.90
30336;DHT22;17142;47.990;7.846;2023-02-03T10:59:03;9.20;99.90
30336;DHT22;17142;47.990;7.846;2023-02-03T11:01:45;9.10;99.90
30336;DHT22;17142;47.990;7.846;2023-02-03T11:04:29;9.10;99.90
30336;DHT22;17142;47.990;7.846;2023-02-03T11:06:59;9.10;99.90
30336;DHT22;17142;47.990;7.846;2023-02-03T11:14:42;9.40;99.90
30336;DHT22;17142;47.990;7.846;2023-02-03T11:17:21;9.60;99.90
30336;DHT22;17142;47.990;7.846;2023-02-03T11:20:19;9.80;99.90
30336;DHT22;17142;47.990;7.846;2023-02-03T11:22:47;9.90;99.90
30336;DHT22;17142;47.990;7.846;2023-02-03T11:25:19;9.80;99.90
30336;DHT22;17142;47.990;7.846;2023-02-03T11:27:48;9.70;99.90
30336;DHT22;17142;47.990;7.846;2023-02-03T11:30:23;9.70;99.90
30336;DHT22;17142;47.990;7.846;2023-02-03T11:32:50;9.60;99.90
30336;DHT22;17142;47.990;7.846;2023-02-03T11:35:22;9.70;99.90
30336;DHT22;17142;47.990;7.846;2023-02-03T11:37:51;9.70;99.90
30336;DHT22;17142;47.990;7.846;2023-02-03T11:40:23;9.70;99.90
30336;DHT22;17142;47.990;7.846;2023-02-03T11:47:55;10.10;99.90
30336;DHT22;17142;47.990;7.846;2023-02-03T11:50:45;10.20;99.90
30336;DHT22;17142;47.990;7.846;2023-02-03T11:59:00;10.00;99.90
30336;DHT22;17142;47.990;7.846;2023-02-03T12:20:51;10.10;99.90
30336;DHT22;17142;47.990;7.846;2023-02-03T12:23:40;10.20;99.90
30336;DHT22;17142;47.990;7.846;2023-02-03T12:26:18;10.20;99.90
30336;DHT22;17142;47.990;7.846;2023-02-03T12:29:10;10.20;99.90
30336;DHT22;17142;47.990;7.846;2023-02-03T12:39:28;10.00;99.90
30336;DHT22;17142;47.990;7.846;2023-02-03T12:47:41;9.70;99.90
30336;DHT22;17142;47.990;7.846;2023-02-03T12:50:18;9.60;99.90
30336;DHT22;17142;47.990;7.846;2023-02-03T13:04:05;9.50;99.90
30336;DHT22;17142;47.990;7.846;2023-02-03T13:06:26;9.50;99.90
30336;DHT22;17142;47.990;7.846;2023-02-03T13:09:04;9.40;99.90
30336;DHT22;17142;47.990;7.846;2023-02-03T13:11:42;9.30;99.90
30336;DHT22;17142;47.990;7.846;2023-02-03T13:14:26;9.20;99.90
30336;DHT22;17142;47.990;7.846;2023-02-03T13:16:57;9.20;99.90
30336;DHT22;17142;47.990;7.846;2023-02-03T13:19:28;9.10;99.90
30336;DHT22;17142;47.990;7.846;2023-02-03T13:21:56;9.10;99.90
30336;DHT22;17142;47.990;7.846;2023-02-03T13:24:26;9.00;99.90
30336;DHT22;17142;47.990;7.846;2023-02-03T13:38:26;9.00;99.90
30336;DHT22;17142;47.990;7.846;2023-02-03T13:41:41;8.90;99.90
30336;DHT22;17142;47.990;7.846;2023-02-03T13:43:45;8.90;99.90
30336;DHT22;17142;47.990;7.846;2023-02-03T13:46:33;8.90;99.90
30336;DHT22;17142;47.990;7.846;2023-02-03T13:49:01;8.80;99.90
30336;DHT22;17142;47.990;7.846;2023-02-03T13:51:31;8.80;99.90
30336;DHT22;17142;47.990;7.846;2023-02-03T13:54:02;8.70;99.90
30336;DHT22;17142;47.990;7.846;2023-02-03T13:56:33;8.70;99.90
30336;DHT22;17142;47.990;7.846;2023-02-03T13:59:05;8.60;99.90
30336;DHT22;17142;47.990;7.846;2023-02-03T14:01:34;8.60;99.90
30336;DHT22;17142;47.990;7.846;2023-02-03T14:04:02;8.60;99.90
30336;DHT22;17142;47.990;7.846;2023-02-03T14:09:19;8.50;99.90
30336;DHT22;17142;47.990;7.846;2023-02-03T14:11:45;8.50;99.90
30336;DHT22;17142;47.990;7.846;2023-02-03T14:22:04;8.30;99.90
30336;DHT22;17142;47.990;7.846;2023-02-03T14:24:36;8.30;99.90
30336;DHT22;17142;47.990;7.846;2023-02-03T14:27:05;8.30;99.90
30336;DHT22;17142;47.990;7.846;2023-02-03T14:29:40;8.20;99.90
30336;DHT22;17142;47.990;7.846;2023-02-03T14:32:12;8.20;99.90
30336;DHT22;17142;47.990;7.846;2023-02-03T14:34:39;8.20;99.90
30336;DHT22;17142;47.990;7.846;2023-02-03T14:40:33;8.20;99.90
30336;DHT22;17142;47.990;7.846;2023-02-03T14:48:57;8.10;99.90
30336;DHT22;17142;47.990;7.846;2023-02-03T14:59:28;8.00;99.90
30336;DHT22;17142;47.990;7.846;2023-02-03T15:04:27;8.00;99.90
30336;DHT22;17142;47.990;7.846;2023-02-03T15:06:55;7.90;99.90
30336;DHT22;17142;47.990;7.846;2023-02-03T15:09:45;7.90;99.90
30336;DHT22;17142;47.990;7.846;2023-02-03T15:14:41;7.90;99.90
30336;DHT22;17142;47.990;7.846;2023-02-03T15:17:12;7.90;99.90
30336;DHT22;17142;47.990;7.846;2023-02-03T15:19:49;7.90;99.90
30336;DHT22;17142;47.990;7.846;2023-02-03T15:24:44;7.90;99.90
30336;DHT22;17142;47.990;7.846;2023-02-03T15:27:22;7.90;99.90
30336;DHT22;17142;47.990;7.846;2023-02-03T15:29:50;7.80;99.90
30336;DHT22;17142;47.990;7.846;2023-02-03T15:32:38;7.90;99.90
30336;DHT22;17142;47.990;7.846;2023-02-03T15:35:14;7.90;99.90
30336;DHT22;17142;47.990;7.846;2023-02-03T15:37:51;7.80;99.90
30336;DHT22;17142;47.990;7.846;2023-02-03T15:40:21;7.80;99.90
30336;DHT22;17142;47.990;7.846;2023-02-03T15:43:18;7.80;99.90
30336;DHT22;17142;47.990;7.846;2023-02-03T15:51:42;7.70;99.90
30336;DHT22;17142;47.990;7.846;2023-02-03T15:54:39;7.70;99.90
30336;DHT22;17142;47.990;7.846;2023-02-03T15:57:20;7.70;99.90
30336;DHT22;17142;47.990;7.846;2023-02-03T15:59:59;7.70;99.90
30336;DHT22;17142;47.990;7.846;2023-02-03T16:02:35;7.70;99.90
30336;DHT22;17142;47.990;7.846;2023-02-03T16:05:33;7.70;99.90
30336;DHT22;17142;47.990;7.846;2023-02-03T16:10:53;7.70;99.90
30336;DHT22;17142;47.990;7.846;2023-02-03T16:13:28;7.60;99.90
30336;DHT22;17142;47.990;7.846;2023-02-03T16:16:06;7.60;99.90
30336;DHT22;17142;47.990;7.846;2023-02-03T16:18:35;7.60;99.90
30336;DHT22;17142;47.990;7.846;2023-02-03T16:21:02;7.60;99.90
30336;DHT22;17142;47.990;7.846;2023-02-03T16:23:28;7.60;99.90
30336;DHT22;17142;47.990;7.846;2023-02-03T16:28:29;7.60;99.90
30336;DHT22;17142;47.990;7.846;2023-02-03T16:31:18;7.60;99.90
30336;DHT22;17142;47.990;7.846;2023-02-03T16:34:16;7.60;99.90
30336;DHT22;17142;47.990;7.846;2023-02-03T16:37:09;7.50;99.90
30336;DHT22;17142;47.990;7.846;2023-02-03T16:39:53;7.50;99.90
30336;DHT22;17142;47.990;7.846;2023-02-03T16:42:39;7.50;99.90
30336;DHT22;17142;47.990;7.846;2023-02-03T16:45:23;7.50;99.90
30336;DHT22;17142;47.990;7.846;2023-02-03T16:48:13;7.50;99.90
30336;DHT22;17142;47.990;7.846;2023-02-03T16:51:04;7.60;99.90
30336;DHT22;17142;47.990;7.846;2023-02-03T16:53:35;7.60;99.90
30336;DHT22;17142;47.990;7.846;2023-02-03T16:56:03;7.60;99.90
30336;DHT22;17142;47.990;7.846;2023-02-03T16:58:29;7.60;99.90
30336;DHT22;17142;47.990;7.846;2023-02-03T17:00:57;7.60;99.90
30336;DHT22;17142;47.990;7.846;2023-02-03T17:03:25;7.60;99.90
30336;DHT22;17142;47.990;7.846;2023-02-03T17:05:53;7.60;99.90
30336;DHT22;17142;47.990;7.846;2023-02-03T17:08:22;7.60;99.90
30336;DHT22;17142;47.990;7.846;2023-02-03T17:10:48;7.60;99.90
30336;DHT22;17142;47.990;7.846;2023-02-03T17:13:15;7.60;99.90
30336;DHT22;17142;47.990;7.846;2023-02-03T17:15:46;7.60;99.90
30336;DHT22;17142;47.990;7.846;2023-02-03T17:18:13;7.70;99.90
30336;DHT22;17142;47.990;7.846;2023-02-03T17:20:42;7.70;99.90
30336;DHT22;17142;47.990;7.846;2023-02-03T17:23:08;7.70;99.90
30336;DHT22;17142;47.990;7.846;2023-02-03T17:25:35;7.70;99.90
30336;DHT22;17142;47.990;7.846;2023-02-03T17:28:02;7.70;99.90
30336;DHT22;17142;47.990;7.846;2023-02-03T17:30:28;7.70;99.90
30336;DHT22;17142;47.990;7.846;2023-02-03T17:32:58;7.70;99.90
30336;DHT22;17142;47.990;7.846;2023-02-03T17:35:24;7.70;99.90
30336;DHT22;17142;47.990;7.846;2023-02-03T17:37:50;7.70;99.90
30336;DHT22;17142;47.990;7.846;2023-02-03T17:40:17;7.70;99.90
30336;DHT22;17142;47.990;7.846;2023-02-03T17:42:42;7.70;99.90
30336;DHT22;17142;47.990;7.846;2023-02-03T17:45:08;7.70;99.90
30336;DHT22;17142;47.990;7.846;2023-02-03T17:47:34;7.70;99.90
30336;DHT22;17142;47.990;7.846;2023-02-03T17:50:02;7.70;99.90
30336;DHT22;17142;47.990;7.846;2023-02-03T17:52:31;7.70;99.90
30336;DHT22;17142;47.990;7.846;2023-02-03T17:54:57;7.70;99.90
30336;DHT22;17142;47.990;7.846;2023-02-03T17:57:22;7.70;99.90
30336;DHT22;17142;47.990;7.846;2023-02-03T17:59:48;7.70;99.90
30336;DHT22;17142;47.990;7.846;2023-02-03T18:02:18;7.70;99.90
30336;DHT22;17142;47.990;7.846;2023-02-03T18:04:43;7.70;99.90
30336;DHT22;17142;47.990;7.846;2023-02-03T18:07:09;7.70;99.90
30336;DHT22;17142;47.990;7.846;2023-02-03T18:09:35;7.70;99.90
30336;DHT22;17142;47.990;7.846;2023-02-03T18:12:00;7.60;99.90
30336;DHT22;17142;47.990;7.846;2023-02-03T18:14:26;7.60;99.90
30336;DHT22;17142;47.990;7.846;2023-02-03T18:16:54;7.60;99.90
30336;DHT22;17142;47.990;7.846;2023-02-03T18:19:20;7.60;99.90
30336;DHT22;17142;47.990;7.846;2023-02-03T18:21:45;7.50;99.90
30336;DHT22;17142;47.990;7.846;2023-02-03T18:24:14;7.50;99.90
30336;DHT22;17142;47.990;7.846;2023-02-03T18:26:48;7.50;99.90
30336;DHT22;17142;47.990;7.846;2023-02-03T18:29:16;7.50;99.90
30336;DHT22;17142;47.990;7.846;2023-02-03T18:31:42;7.50;99.90
30336;DHT22;17142;47.990;7.846;2023-02-03T18:34:08;7.40;99.90
30336;DHT22;17142;47.990;7.846;2023-02-03T18:36:34;7.40;99.90
30336;DHT22;17142;47.990;7.846;2023-02-03T18:39:03;7.40;99.90
30336;DHT22;17142;47.990;7.846;2023-02-03T18:41:29;7.40;99.90
30336;DHT22;17142;47.990;7.846;2023-02-03T18:43:57;7.30;99.90
30336;DHT22;17142;47.990;7.846;2023-02-03T18:46:27;7.30;99.90
30336;DHT22;17142;47.990;7.846;2023-02-03T18:48:53;7.30;99.90
30336;DHT22;17142;47.990;7.846;2023-02-03T18:51:21;7.30;99.90